sensor_id;sensor_type;location;lat;lon;timestamp;temperature;humidity
39655;DHT22;25336;59.944;11.010;2023-10-31T00:00:17;2.80;68.50
39655;DHT22;25336;59.944;11.010;2023-10-31T00:02:43;2.80;68.40
39655;DHT22;25336;59.944;11.010;2023-10-31T00:05:09;3.80;69.00
39655;DHT22;25336;59.944;11.010;2023-10-31T00:07:34;2.80;68.40
39655;DHT22;25336;59.944;11.010;2023-10-31T00:10:00;3.50;68.80
39655;DHT22;25336;59.944;11.010;2023-10-31T00:12:26;2.80;68.40
39655;DHT22;25336;59.944;11.010;2023-10-31T00:14:51;2.90;68.50
39655;DHT22;25336;59.944;11.010;2023-10-31T00:17:17;2.80;68.40
39655;DHT22;25336;59.944;11.010;2023-10-31T00:19:42;2.80;68.60
39655;DHT22;25336;59.944;11.010;2023-10-31T00:22:09;2.80;68.60
39655;DHT22;25336;59.944;11.010;2023-10-31T00:24:35;3.60;69.30
39655;DHT22;25336;59.944;11.010;2023-10-31T00:27:01;2.80;68.80
39655;DHT22;25336;59.944;11.010;2023-10-31T00:29:27;2.80;69.00
39655;DHT22;25336;59.944;11.010;2023-10-31T00:31:52;2.80;69.00
39655;DHT22;25336;59.944;11.010;2023-10-31T00:34:18;2.70;69.00
39655;DHT22;25336;59.944;11.010;2023-10-31T00:36:44;2.70;69.10
39655;DHT22;25336;59.944;11.010;2023-10-31T00:39:09;2.70;69.10
39655;DHT22;25336;59.944;11.010;2023-10-31T00:41:35;3.60;69.80
39655;DHT22;25336;59.944;11.010;2023-10-31T00:44:00;2.70;69.20
39655;DHT22;25336;59.944;11.010;2023-10-31T00:46:26;2.70;69.20
39655;DHT22;25336;59.944;11.010;2023-10-31T00:48:51;2.70;69.20
39655;DHT22;25336;59.944;11.010;2023-10-31T00:51:17;2.70;69.30
39655;DHT22;25336;59.944;11.010;2023-10-31T00:53:43;2.70;69.50
39655;DHT22;25336;59.944;11.010;2023-10-31T00:56:08;2.70;69.40
39655;DHT22;25336;59.944;11.010;2023-10-31T00:58:34;3.60;70.00
39655;DHT22;25336;59.944;11.010;2023-10-31T01:01:00;2.70;69.50
39655;DHT22;25336;59.944;11.010;2023-10-31T01:03:25;3.60;70.10
39655;DHT22;25336;59.944;11.010;2023-10-31T01:05:51;3.80;70.30
39655;DHT22;25336;59.944;11.010;2023-10-31T01:08:16;2.70;69.50
39655;DHT22;25336;59.944;11.010;2023-10-31T01:10:42;2.60;69.60
39655;DHT22;25336;59.944;11.010;2023-10-31T01:13:07;2.80;69.60
39655;DHT22;25336;59.944;11.010;2023-10-31T01:15:33;2.70;69.50
39655;DHT22;25336;59.944;11.010;2023-10-31T01:17:59;2.70;69.50
39655;DHT22;25336;59.944;11.010;2023-10-31T01:20:24;2.70;69.50
39655;DHT22;25336;59.944;11.010;2023-10-31T01:22:51;3.00;69.80
39655;DHT22;25336;59.944;11.010;2023-10-31T01:25:16;2.70;69.70
39655;DHT22;25336;59.944;11.010;2023-10-31T01:27:42;3.80;70.30
39655;DHT22;25336;59.944;11.010;2023-10-31T01:30:09;2.60;69.60
39655;DHT22;25336;59.944;11.010;2023-10-31T01:32:34;2.70;69.60
39655;DHT22;25336;59.944;11.010;2023-10-31T01:35:00;2.60;69.50
39655;DHT22;25336;59.944;11.010;2023-10-31T01:37:26;2.60;69.50
39655;DHT22;25336;59.944;11.010;2023-10-31T01:39:52;2.70;69.60
39655;DHT22;25336;59.944;11.010;2023-10-31T01:42:18;2.70;69.60
39655;DHT22;25336;59.944;11.010;2023-10-31T01:44:44;2.70;69.50
39655;DHT22;25336;59.944;11.010;2023-10-31T01:47:09;2.60;69.50
39655;DHT22;25336;59.944;11.010;2023-10-31T01:49:36;2.60;69.50
39655;DHT22;25336;59.944;11.010;2023-10-31T01:52:03;2.70;69.50
39655;DHT22;25336;59.944;11.010;2023-10-31T01:54:29;2.60;69.50
39655;DHT22;25336;59.944;11.010;2023-10-31T01:56:56;2.60;69.40
39655;DHT22;25336;59.944;11.010;2023-10-31T01:59:25;2.60;69.60
39655;DHT22;25336;59.944;11.010;2023-10-31T02:01:51;2.60;69.60
39655;DHT22;25336;59.944;11.010;2023-10-31T02:04:17;2.60;69.60
39655;DHT22;25336;59.944;11.010;2023-10-31T02:06:43;2.60;69.50
39655;DHT22;25336;59.944;11.010;2023-10-31T02:09:09;2.60;69.50
39655;DHT22;25336;59.944;11.010;2023-10-31T02:11:34;2.60;69.60
39655;DHT22;25336;59.944;11.010;2023-10-31T02:14:01;2.60;69.50
39655;DHT22;25336;59.944;11.010;2023-10-31T02:16:27;2.60;69.70
39655;DHT22;25336;59.944;11.010;2023-10-31T02:18:53;2.60;69.60
39655;DHT22;25336;59.944;11.010;2023-10-31T02:21:20;2.60;69.50
39655;DHT22;25336;59.944;11.010;2023-10-31T02:23:59;2.60;69.50
39655;DHT22;25336;59.944;11.010;2023-10-31T02:26:29;2.60;69.50
39655;DHT22;25336;59.944;11.010;2023-10-31T02:28:55;2.60;69.60
39655;DHT22;25336;59.944;11.010;2023-10-31T02:31:21;2.60;69.50
39655;DHT22;25336;59.944;11.010;2023-10-31T02:33:47;2.60;69.50
39655;DHT22;25336;59.944;11.010;2023-10-31T02:36:12;2.60;69.50
39655;DHT22;25336;59.944;11.010;2023-10-31T02:38:39;2.60;70.20
39655;DHT22;25336;59.944;11.010;2023-10-31T02:41:04;2.60;69.40
39655;DHT22;25336;59.944;11.010;2023-10-31T02:43:30;2.60;69.30
39655;DHT22;25336;59.944;11.010;2023-10-31T02:45:55;3.00;69.60
39655;DHT22;25336;59.944;11.010;2023-10-31T02:48:21;2.60;69.30
39655;DHT22;25336;59.944;11.010;2023-10-31T02:50:47;2.60;69.30
39655;DHT22;25336;59.944;11.010;2023-10-31T02:53:12;2.60;69.20
39655;DHT22;25336;59.944;11.010;2023-10-31T02:55:38;2.60;69.20
39655;DHT22;25336;59.944;11.010;2023-10-31T02:58:04;2.60;69.10
39655;DHT22;25336;59.944;11.010;2023-10-31T03:00:29;2.60;69.00
39655;DHT22;25336;59.944;11.010;2023-10-31T03:02:55;3.50;69.60
39655;DHT22;25336;59.944;11.010;2023-10-31T03:05:20;2.70;69.10
39655;DHT22;25336;59.944;11.010;2023-10-31T03:07:46;2.70;69.10
39655;DHT22;25336;59.944;11.010;2023-10-31T03:10:12;2.70;69.00
39655;DHT22;25336;59.944;11.010;2023-10-31T03:12:37;3.40;69.40
39655;DHT22;25336;59.944;11.010;2023-10-31T03:15:03;2.70;68.80
39655;DHT22;25336;59.944;11.010;2023-10-31T03:17:29;2.70;68.80
39655;DHT22;25336;59.944;11.010;2023-10-31T03:19:55;2.70;68.80
39655;DHT22;25336;59.944;11.010;2023-10-31T03:22:21;2.70;68.70
39655;DHT22;25336;59.944;11.010;2023-10-31T03:24:47;2.70;68.70
39655;DHT22;25336;59.944;11.010;2023-10-31T03:27:12;2.70;68.70
39655;DHT22;25336;59.944;11.010;2023-10-31T03:29:38;2.70;68.70
39655;DHT22;25336;59.944;11.010;2023-10-31T03:32:04;2.80;68.70
39655;DHT22;25336;59.944;11.010;2023-10-31T03:34:30;2.70;68.50
39655;DHT22;25336;59.944;11.010;2023-10-31T03:36:56;2.70;68.50
39655;DHT22;25336;59.944;11.010;2023-10-31T03:39:21;2.70;68.40
39655;DHT22;25336;59.944;11.010;2023-10-31T03:41:47;2.70;68.50
39655;DHT22;25336;59.944;11.010;2023-10-31T03:44:13;3.00;68.70
39655;DHT22;25336;59.944;11.010;2023-10-31T03:46:39;2.80;68.60
39655;DHT22;25336;59.944;11.010;2023-10-31T03:49:04;2.70;68.50
39655;DHT22;25336;59.944;11.010;2023-10-31T03:51:33;2.80;68.60
39655;DHT22;25336;59.944;11.010;2023-10-31T03:53:59;2.80;68.60
39655;DHT22;25336;59.944;11.010;2023-10-31T03:56:24;2.80;68.50
39655;DHT22;25336;59.944;11.010;2023-10-31T03:58:50;2.80;68.50
39655;DHT22;25336;59.944;11.010;2023-10-31T04:01:16;2.80;68.50
39655;DHT22;25336;59.944;11.010;2023-10-31T04:03:41;2.70;68.40
39655;DHT22;25336;59.944;11.010;2023-10-31T04:06:07;2.80;68.40
39655;DHT22;25336;59.944;11.010;2023-10-31T04:08:33;2.80;68.50
39655;DHT22;25336;59.944;11.010;2023-10-31T04:10:58;2.80;68.40
39655;DHT22;25336;59.944;11.010;2023-10-31T04:13:24;2.80;68.40
39655;DHT22;25336;59.944;11.010;2023-10-31T04:15:50;4.00;69.20
39655;DHT22;25336;59.944;11.010;2023-10-31T04:18:15;2.70;68.30
39655;DHT22;25336;59.944;11.010;2023-10-31T04:20:42;2.70;68.30
39655;DHT22;25336;59.944;11.010;2023-10-31T04:23:07;2.70;68.40
39655;DHT22;25336;59.944;11.010;2023-10-31T04:25:33;2.80;68.40
39655;DHT22;25336;59.944;11.010;2023-10-31T04:27:59;2.70;68.40
39655;DHT22;25336;59.944;11.010;2023-10-31T04:30:25;2.70;68.40
39655;DHT22;25336;59.944;11.010;2023-10-31T04:32:52;2.70;68.40
39655;DHT22;25336;59.944;11.010;2023-10-31T04:35:17;2.70;68.40
39655;DHT22;25336;59.944;11.010;2023-10-31T04:37:43;3.70;69.00
39655;DHT22;25336;59.944;11.010;2023-10-31T04:40:09;2.70;68.40
39655;DHT22;25336;59.944;11.010;2023-10-31T04:42:35;2.70;68.30
39655;DHT22;25336;59.944;11.010;2023-10-31T04:45:01;2.70;68.30
39655;DHT22;25336;59.944;11.010;2023-10-31T04:47:27;2.70;68.30
39655;DHT22;25336;59.944;11.010;2023-10-31T04:49:52;2.70;68.30
39655;DHT22;25336;59.944;11.010;2023-10-31T04:52:18;2.70;68.30
39655;DHT22;25336;59.944;11.010;2023-10-31T04:54:45;2.70;68.30
39655;DHT22;25336;59.944;11.010;2023-10-31T04:57:10;2.70;68.30
39655;DHT22;25336;59.944;11.010;2023-10-31T04:59:36;2.70;68.30
39655;DHT22;25336;59.944;11.010;2023-10-31T05:02:03;3.40;68.80
39655;DHT22;25336;59.944;11.010;2023-10-31T05:04:28;2.70;68.40
39655;DHT22;25336;59.944;11.010;2023-10-31T05:06:54;2.70;68.40
39655;DHT22;25336;59.944;11.010;2023-10-31T05:09:20;2.70;68.40
39655;DHT22;25336;59.944;11.010;2023-10-31T05:11:45;2.70;68.40
39655;DHT22;25336;59.944;11.010;2023-10-31T05:14:11;2.70;68.40
39655;DHT22;25336;59.944;11.010;2023-10-31T05:16:42;3.00;68.60
39655;DHT22;25336;59.944;11.010;2023-10-31T05:19:08;2.70;68.50
39655;DHT22;25336;59.944;11.010;2023-10-31T05:21:34;2.60;68.50
39655;DHT22;25336;59.944;11.010;2023-10-31T05:24:00;2.60;68.30
39655;DHT22;25336;59.944;11.010;2023-10-31T05:26:26;2.60;68.50
39655;DHT22;25336;59.944;11.010;2023-10-31T05:28:53;2.60;68.50
39655;DHT22;25336;59.944;11.010;2023-10-31T05:31:19;2.60;68.60
39655;DHT22;25336;59.944;11.010;2023-10-31T05:33:45;2.60;68.60
39655;DHT22;25336;59.944;11.010;2023-10-31T05:36:20;2.60;68.60
39655;DHT22;25336;59.944;11.010;2023-10-31T05:38:46;2.60;68.80
39655;DHT22;25336;59.944;11.010;2023-10-31T05:41:13;2.60;68.70
39655;DHT22;25336;59.944;11.010;2023-10-31T05:43:38;2.60;68.90
39655;DHT22;25336;59.944;11.010;2023-10-31T05:46:04;2.60;68.80
39655;DHT22;25336;59.944;11.010;2023-10-31T05:48:31;3.60;69.50
39655;DHT22;25336;59.944;11.010;2023-10-31T05:50:57;2.60;68.90
39655;DHT22;25336;59.944;11.010;2023-10-31T05:53:22;2.60;68.90
39655;DHT22;25336;59.944;11.010;2023-10-31T05:55:48;2.60;68.90
39655;DHT22;25336;59.944;11.010;2023-10-31T05:58:13;2.60;68.90
39655;DHT22;25336;59.944;11.010;2023-10-31T06:00:39;2.60;68.90
39655;DHT22;25336;59.944;11.010;2023-10-31T06:03:04;2.60;68.90
39655;DHT22;25336;59.944;11.010;2023-10-31T06:05:30;2.60;68.90
39655;DHT22;25336;59.944;11.010;2023-10-31T06:07:56;2.60;69.70
39655;DHT22;25336;59.944;11.010;2023-10-31T06:10:21;3.50;69.50
39655;DHT22;25336;59.944;11.010;2023-10-31T06:12:47;2.60;68.90
39655;DHT22;25336;59.944;11.010;2023-10-31T06:15:13;2.60;68.90
39655;DHT22;25336;59.944;11.010;2023-10-31T06:17:39;2.60;68.90
39655;DHT22;25336;59.944;11.010;2023-10-31T06:20:07;2.60;68.80
39655;DHT22;25336;59.944;11.010;2023-10-31T06:22:33;2.60;68.90
39655;DHT22;25336;59.944;11.010;2023-10-31T06:24:59;3.60;69.50
39655;DHT22;25336;59.944;11.010;2023-10-31T06:27:24;2.60;68.90
39655;DHT22;25336;59.944;11.010;2023-10-31T06:29:50;2.70;69.00
39655;DHT22;25336;59.944;11.010;2023-10-31T06:32:16;2.60;68.80
39655;DHT22;25336;59.944;11.010;2023-10-31T06:34:42;2.60;68.90
39655;DHT22;25336;59.944;11.010;2023-10-31T06:37:07;2.60;68.90
39655;DHT22;25336;59.944;11.010;2023-10-31T06:39:33;2.60;68.80
39655;DHT22;25336;59.944;11.010;2023-10-31T06:41:58;2.60;68.80
39655;DHT22;25336;59.944;11.010;2023-10-31T06:44:24;2.60;68.80
39655;DHT22;25336;59.944;11.010;2023-10-31T06:46:49;2.70;68.90
39655;DHT22;25336;59.944;11.010;2023-10-31T06:49:15;2.60;68.90
39655;DHT22;25336;59.944;11.010;2023-10-31T06:51:41;3.30;69.30
39655;DHT22;25336;59.944;11.010;2023-10-31T06:54:07;2.60;69.00
39655;DHT22;25336;59.944;11.010;2023-10-31T06:56:32;2.60;68.90
39655;DHT22;25336;59.944;11.010;2023-10-31T06:58:58;2.60;68.90
39655;DHT22;25336;59.944;11.010;2023-10-31T07:01:24;2.70;69.00
39655;DHT22;25336;59.944;11.010;2023-10-31T07:03:50;2.60;69.00
39655;DHT22;25336;59.944;11.010;2023-10-31T07:06:15;2.70;69.10
39655;DHT22;25336;59.944;11.010;2023-10-31T07:08:41;2.60;68.90
39655;DHT22;25336;59.944;11.010;2023-10-31T07:11:06;2.60;68.90
39655;DHT22;25336;59.944;11.010;2023-10-31T07:13:32;2.60;68.90
39655;DHT22;25336;59.944;11.010;2023-10-31T07:15:58;2.60;69.00
39655;DHT22;25336;59.944;11.010;2023-10-31T07:18:23;2.70;69.10
39655;DHT22;25336;59.944;11.010;2023-10-31T07:20:49;2.70;69.10
39655;DHT22;25336;59.944;11.010;2023-10-31T07:23:14;2.70;69.10
39655;DHT22;25336;59.944;11.010;2023-10-31T07:25:41;2.70;69.00
39655;DHT22;25336;59.944;11.010;2023-10-31T07:28:07;2.70;69.10
39655;DHT22;25336;59.944;11.010;2023-10-31T07:30:32;2.90;69.20
39655;DHT22;25336;59.944;11.010;2023-10-31T07:32:58;2.70;69.10
39655;DHT22;25336;59.944;11.010;2023-10-31T07:35:24;2.70;69.00
39655;DHT22;25336;59.944;11.010;2023-10-31T07:37:49;2.70;69.20
39655;DHT22;25336;59.944;11.010;2023-10-31T07:40:15;2.70;69.10
39655;DHT22;25336;59.944;11.010;2023-10-31T07:42:42;2.00;68.70
39655;DHT22;25336;59.944;11.010;2023-10-31T07:45:07;2.70;69.30
39655;DHT22;25336;59.944;11.010;2023-10-31T07:47:33;2.70;69.50
39655;DHT22;25336;59.944;11.010;2023-10-31T07:49:59;2.70;69.50
39655;DHT22;25336;59.944;11.010;2023-10-31T07:52:25;2.70;69.50
39655;DHT22;25336;59.944;11.010;2023-10-31T07:54:50;2.70;69.50
39655;DHT22;25336;59.944;11.010;2023-10-31T07:57:16;2.70;69.50
39655;DHT22;25336;59.944;11.010;2023-10-31T07:59:41;2.70;69.50
39655;DHT22;25336;59.944;11.010;2023-10-31T08:02:07;2.70;69.40
39655;DHT22;25336;59.944;11.010;2023-10-31T08:04:33;2.70;69.30
39655;DHT22;25336;59.944;11.010;2023-10-31T08:06:58;2.70;69.20
39655;DHT22;25336;59.944;11.010;2023-10-31T08:09:24;2.70;69.20
39655;DHT22;25336;59.944;11.010;2023-10-31T08:11:50;2.70;69.30
39655;DHT22;25336;59.944;11.010;2023-10-31T08:14:15;2.80;69.30
39655;DHT22;25336;59.944;11.010;2023-10-31T08:16:42;3.40;69.60
39655;DHT22;25336;59.944;11.010;2023-10-31T08:19:07;2.80;69.20
39655;DHT22;25336;59.944;11.010;2023-10-31T08:21:33;2.80;69.10
39655;DHT22;25336;59.944;11.010;2023-10-31T08:24:04;2.90;69.00
39655;DHT22;25336;59.944;11.010;2023-10-31T08:26:31;2.90;69.00
39655;DHT22;25336;59.944;11.010;2023-10-31T08:28:57;2.90;68.90
39655;DHT22;25336;59.944;11.010;2023-10-31T08:31:22;2.90;68.90
39655;DHT22;25336;59.944;11.010;2023-10-31T08:33:48;2.90;68.80
39655;DHT22;25336;59.944;11.010;2023-10-31T08:36:14;3.00;68.90
39655;DHT22;25336;59.944;11.010;2023-10-31T08:38:40;2.90;68.80
39655;DHT22;25336;59.944;11.010;2023-10-31T08:41:05;3.00;68.80
39655;DHT22;25336;59.944;11.010;2023-10-31T08:43:31;3.80;69.30
39655;DHT22;25336;59.944;11.010;2023-10-31T08:45:57;3.00;68.80
39655;DHT22;25336;59.944;11.010;2023-10-31T08:48:22;3.00;68.70
39655;DHT22;25336;59.944;11.010;2023-10-31T08:50:48;2.10;68.10
39655;DHT22;25336;59.944;11.010;2023-10-31T08:53:14;4.20;69.40
39655;DHT22;25336;59.944;11.010;2023-10-31T08:55:40;3.00;68.60
39655;DHT22;25336;59.944;11.010;2023-10-31T08:58:12;3.00;68.60
39655;DHT22;25336;59.944;11.010;2023-10-31T09:00:42;3.00;68.60
39655;DHT22;25336;59.944;11.010;2023-10-31T09:03:08;3.00;68.50
39655;DHT22;25336;59.944;11.010;2023-10-31T09:05:34;3.20;68.70
39655;DHT22;25336;59.944;11.010;2023-10-31T09:08:00;3.00;68.50
39655;DHT22;25336;59.944;11.010;2023-10-31T09:10:25;3.10;68.50
39655;DHT22;25336;59.944;11.010;2023-10-31T09:12:51;3.10;68.40
39655;DHT22;25336;59.944;11.010;2023-10-31T09:15:17;3.20;68.40
39655;DHT22;25336;59.944;11.010;2023-10-31T09:17:44;3.10;68.30
39655;DHT22;25336;59.944;11.010;2023-10-31T09:20:10;3.10;68.30
39655;DHT22;25336;59.944;11.010;2023-10-31T09:22:37;3.10;68.30
39655;DHT22;25336;59.944;11.010;2023-10-31T09:25:03;3.10;68.40
39655;DHT22;25336;59.944;11.010;2023-10-31T09:27:29;3.10;68.30
39655;DHT22;25336;59.944;11.010;2023-10-31T09:29:54;3.10;68.30
39655;DHT22;25336;59.944;11.010;2023-10-31T09:32:20;3.20;68.40
39655;DHT22;25336;59.944;11.010;2023-10-31T09:34:45;3.20;68.30
39655;DHT22;25336;59.944;11.010;2023-10-31T09:37:11;3.20;68.20
39655;DHT22;25336;59.944;11.010;2023-10-31T09:39:37;3.20;68.20
39655;DHT22;25336;59.944;11.010;2023-10-31T09:42:03;3.20;68.20
39655;DHT22;25336;59.944;11.010;2023-10-31T09:44:29;3.20;68.10
39655;DHT22;25336;59.944;11.010;2023-10-31T09:46:55;3.20;68.30
39655;DHT22;25336;59.944;11.010;2023-10-31T09:49:22;3.20;68.30
39655;DHT22;25336;59.944;11.010;2023-10-31T09:51:48;3.20;68.20
39655;DHT22;25336;59.944;11.010;2023-10-31T09:54:15;3.20;68.30
39655;DHT22;25336;59.944;11.010;2023-10-31T09:56:42;4.10;68.70
39655;DHT22;25336;59.944;11.010;2023-10-31T09:59:09;3.30;68.30
39655;DHT22;25336;59.944;11.010;2023-10-31T10:01:35;3.20;68.10
39655;DHT22;25336;59.944;11.010;2023-10-31T10:04:00;3.20;68.10
39655;DHT22;25336;59.944;11.010;2023-10-31T10:06:27;3.30;68.20
39655;DHT22;25336;59.944;11.010;2023-10-31T10:08:52;3.20;68.10
39655;DHT22;25336;59.944;11.010;2023-10-31T10:11:18;3.20;68.10
39655;DHT22;25336;59.944;11.010;2023-10-31T10:13:47;3.20;68.30
39655;DHT22;25336;59.944;11.010;2023-10-31T10:16:12;3.30;68.40
39655;DHT22;25336;59.944;11.010;2023-10-31T10:18:38;3.20;68.20
39655;DHT22;25336;59.944;11.010;2023-10-31T10:21:06;4.10;68.80
39655;DHT22;25336;59.944;11.010;2023-10-31T10:23:33;3.30;69.00
39655;DHT22;25336;59.944;11.010;2023-10-31T10:25:59;3.20;68.10
39655;DHT22;25336;59.944;11.010;2023-10-31T10:28:26;3.20;68.00
39655;DHT22;25336;59.944;11.010;2023-10-31T10:30:53;3.30;68.20
39655;DHT22;25336;59.944;11.010;2023-10-31T10:33:20;3.30;68.10
39655;DHT22;25336;59.944;11.010;2023-10-31T10:35:46;3.20;68.10
39655;DHT22;25336;59.944;11.010;2023-10-31T10:38:13;3.20;69.00
39655;DHT22;25336;59.944;11.010;2023-10-31T10:40:47;3.30;68.30
39655;DHT22;25336;59.944;11.010;2023-10-31T10:43:20;3.70;68.60
39655;DHT22;25336;59.944;11.010;2023-10-31T10:45:54;3.20;68.30
39655;DHT22;25336;59.944;11.010;2023-10-31T10:48:27;3.20;68.30
39655;DHT22;25336;59.944;11.010;2023-10-31T10:50:59;3.20;68.30
39655;DHT22;25336;59.944;11.010;2023-10-31T10:53:34;3.20;68.40
39655;DHT22;25336;59.944;11.010;2023-10-31T10:56:11;3.20;68.30
39655;DHT22;25336;59.944;11.010;2023-10-31T10:58:50;3.20;68.40
39655;DHT22;25336;59.944;11.010;2023-10-31T11:01:17;3.30;68.30
39655;DHT22;25336;59.944;11.010;2023-10-31T11:03:45;4.40;69.00
39655;DHT22;25336;59.944;11.010;2023-10-31T11:06:12;3.30;68.20
39655;DHT22;25336;59.944;11.010;2023-10-31T11:08:40;3.30;68.20
39655;DHT22;25336;59.944;11.010;2023-10-31T11:11:06;3.30;68.30
39655;DHT22;25336;59.944;11.010;2023-10-31T11:13:33;3.20;68.30
39655;DHT22;25336;59.944;11.010;2023-10-31T11:16:04;3.30;68.20
39655;DHT22;25336;59.944;11.010;2023-10-31T11:18:32;3.30;68.20
39655;DHT22;25336;59.944;11.010;2023-10-31T11:20:58;3.30;67.90
39655;DHT22;25336;59.944;11.010;2023-10-31T11:23:25;3.30;67.70
39655;DHT22;25336;59.944;11.010;2023-10-31T11:25:52;3.40;67.80
39655;DHT22;25336;59.944;11.010;2023-10-31T11:28:19;3.30;67.40
39655;DHT22;25336;59.944;11.010;2023-10-31T11:30:48;3.30;67.40
39655;DHT22;25336;59.944;11.010;2023-10-31T11:33:15;3.30;67.40
39655;DHT22;25336;59.944;11.010;2023-10-31T11:35:41;3.40;67.30
39655;DHT22;25336;59.944;11.010;2023-10-31T11:38:09;3.40;67.40
39655;DHT22;25336;59.944;11.010;2023-10-31T11:40:39;3.40;67.40
39655;DHT22;25336;59.944;11.010;2023-10-31T11:43:22;3.50;67.20
39655;DHT22;25336;59.944;11.010;2023-10-31T11:45:48;4.20;67.60
39655;DHT22;25336;59.944;11.010;2023-10-31T11:48:15;3.40;67.00
39655;DHT22;25336;59.944;11.010;2023-10-31T11:50:41;4.60;67.70
39655;DHT22;25336;59.944;11.010;2023-10-31T11:53:14;3.40;66.90
39655;DHT22;25336;59.944;11.010;2023-10-31T11:55:44;3.40;66.90
39655;DHT22;25336;59.944;11.010;2023-10-31T11:58:18;3.40;66.60
39655;DHT22;25336;59.944;11.010;2023-10-31T12:00:45;3.40;66.60
39655;DHT22;25336;59.944;11.010;2023-10-31T12:03:12;3.40;66.60
39655;DHT22;25336;59.944;11.010;2023-10-31T12:05:38;3.40;66.70
39655;DHT22;25336;59.944;11.010;2023-10-31T12:08:04;3.30;66.60
39655;DHT22;25336;59.944;11.010;2023-10-31T12:10:30;3.30;66.50
39655;DHT22;25336;59.944;11.010;2023-10-31T12:12:57;3.30;67.40
39655;DHT22;25336;59.944;11.010;2023-10-31T12:15:24;3.30;66.50
39655;DHT22;25336;59.944;11.010;2023-10-31T12:17:50;3.30;66.70
39655;DHT22;25336;59.944;11.010;2023-10-31T12:20:16;4.50;67.20
39655;DHT22;25336;59.944;11.010;2023-10-31T12:22:42;3.30;66.50
39655;DHT22;25336;59.944;11.010;2023-10-31T12:25:09;3.30;66.50
39655;DHT22;25336;59.944;11.010;2023-10-31T12:27:49;3.30;66.40
39655;DHT22;25336;59.944;11.010;2023-10-31T12:30:22;3.30;66.40
39655;DHT22;25336;59.944;11.010;2023-10-31T12:32:55;3.30;66.40
39655;DHT22;25336;59.944;11.010;2023-10-31T12:35:23;3.20;66.50
39655;DHT22;25336;59.944;11.010;2023-10-31T12:37:50;3.20;66.50
39655;DHT22;25336;59.944;11.010;2023-10-31T12:40:21;4.20;67.20
39655;DHT22;25336;59.944;11.010;2023-10-31T12:42:48;3.20;66.60
39655;DHT22;25336;59.944;11.010;2023-10-31T12:45:15;3.70;67.00
39655;DHT22;25336;59.944;11.010;2023-10-31T12:47:42;3.20;66.60
39655;DHT22;25336;59.944;11.010;2023-10-31T12:50:12;4.30;67.40
39655;DHT22;25336;59.944;11.010;2023-10-31T12:52:51;3.10;66.70
39655;DHT22;25336;59.944;11.010;2023-10-31T12:55:19;3.10;66.70
39655;DHT22;25336;59.944;11.010;2023-10-31T12:57:45;3.10;66.70
39655;DHT22;25336;59.944;11.010;2023-10-31T13:00:16;3.10;66.80
39655;DHT22;25336;59.944;11.010;2023-10-31T13:02:50;3.10;66.80
39655;DHT22;25336;59.944;11.010;2023-10-31T13:05:15;3.10;66.80
39655;DHT22;25336;59.944;11.010;2023-10-31T13:07:51;3.10;66.90
39655;DHT22;25336;59.944;11.010;2023-10-31T13:10:19;3.10;66.90
39655;DHT22;25336;59.944;11.010;2023-10-31T13:12:48;3.10;66.80
39655;DHT22;25336;59.944;11.010;2023-10-31T13:15:15;3.10;66.80
39655;DHT22;25336;59.944;11.010;2023-10-31T13:17:41;3.10;66.70
39655;DHT22;25336;59.944;11.010;2023-10-31T13:20:10;3.80;67.10
39655;DHT22;25336;59.944;11.010;2023-10-31T13:22:36;3.10;66.60
39655;DHT22;25336;59.944;11.010;2023-10-31T13:25:04;3.10;66.60
39655;DHT22;25336;59.944;11.010;2023-10-31T13:27:40;3.10;66.50
39655;DHT22;25336;59.944;11.010;2023-10-31T13:30:10;3.20;66.70
39655;DHT22;25336;59.944;11.010;2023-10-31T13:32:40;3.10;66.40
39655;DHT22;25336;59.944;11.010;2023-10-31T13:35:06;3.10;66.50
39655;DHT22;25336;59.944;11.010;2023-10-31T13:37:38;3.10;66.50
39655;DHT22;25336;59.944;11.010;2023-10-31T13:40:04;3.10;66.60
39655;DHT22;25336;59.944;11.010;2023-10-31T13:42:30;3.10;66.50
39655;DHT22;25336;59.944;11.010;2023-10-31T13:44:56;3.10;66.50
39655;DHT22;25336;59.944;11.010;2023-10-31T13:47:22;3.10;66.60
39655;DHT22;25336;59.944;11.010;2023-10-31T13:49:47;3.20;66.60
39655;DHT22;25336;59.944;11.010;2023-10-31T13:52:14;3.10;66.60
39655;DHT22;25336;59.944;11.010;2023-10-31T13:54:41;3.10;66.40
39655;DHT22;25336;59.944;11.010;2023-10-31T13:57:07;3.10;66.40
39655;DHT22;25336;59.944;11.010;2023-10-31T13:59:33;3.10;66.30
39655;DHT22;25336;59.944;11.010;2023-10-31T14:01:58;3.10;66.10
39655;DHT22;25336;59.944;11.010;2023-10-31T14:04:24;3.10;66.20
39655;DHT22;25336;59.944;11.010;2023-10-31T14:06:49;3.10;66.20
39655;DHT22;25336;59.944;11.010;2023-10-31T14:09:15;3.00;66.20
39655;DHT22;25336;59.944;11.010;2023-10-31T14:11:41;4.10;66.90
39655;DHT22;25336;59.944;11.010;2023-10-31T14:14:07;3.00;66.20
39655;DHT22;25336;59.944;11.010;2023-10-31T14:16:39;3.00;66.20
39655;DHT22;25336;59.944;11.010;2023-10-31T14:19:05;3.00;66.20
39655;DHT22;25336;59.944;11.010;2023-10-31T14:21:33;3.00;66.20
39655;DHT22;25336;59.944;11.010;2023-10-31T14:23:59;3.00;66.20
39655;DHT22;25336;59.944;11.010;2023-10-31T14:26:26;3.00;66.20
39655;DHT22;25336;59.944;11.010;2023-10-31T14:28:51;3.00;66.30
39655;DHT22;25336;59.944;11.010;2023-10-31T14:31:17;3.00;66.30
39655;DHT22;25336;59.944;11.010;2023-10-31T14:33:43;3.00;66.10
39655;DHT22;25336;59.944;11.010;2023-10-31T14:36:10;2.50;65.80
39655;DHT22;25336;59.944;11.010;2023-10-31T14:38:38;3.00;66.10
39655;DHT22;25336;59.944;11.010;2023-10-31T14:41:04;2.90;66.00
39655;DHT22;25336;59.944;11.010;2023-10-31T14:43:30;2.90;66.10
39655;DHT22;25336;59.944;11.010;2023-10-31T14:45:56;2.90;66.10
39655;DHT22;25336;59.944;11.010;2023-10-31T14:48:22;2.90;66.20
39655;DHT22;25336;59.944;11.010;2023-10-31T14:50:48;3.60;66.70
39655;DHT22;25336;59.944;11.010;2023-10-31T14:53:14;2.90;66.40
39655;DHT22;25336;59.944;11.010;2023-10-31T14:55:40;2.80;66.40
39655;DHT22;25336;59.944;11.010;2023-10-31T14:58:06;2.80;66.50
39655;DHT22;25336;59.944;11.010;2023-10-31T15:00:34;2.70;66.60
39655;DHT22;25336;59.944;11.010;2023-10-31T15:02:59;2.70;66.80
39655;DHT22;25336;59.944;11.010;2023-10-31T15:05:25;2.70;67.00
39655;DHT22;25336;59.944;11.010;2023-10-31T15:07:51;2.60;67.20
39655;DHT22;25336;59.944;11.010;2023-10-31T15:10:21;2.60;67.20
39655;DHT22;25336;59.944;11.010;2023-10-31T15:12:47;2.60;67.50
39655;DHT22;25336;59.944;11.010;2023-10-31T15:15:15;2.50;67.50
39655;DHT22;25336;59.944;11.010;2023-10-31T15:17:41;2.50;67.60
39655;DHT22;25336;59.944;11.010;2023-10-31T15:20:07;2.50;67.60
39655;DHT22;25336;59.944;11.010;2023-10-31T15:22:36;2.50;67.60
39655;DHT22;25336;59.944;11.010;2023-10-31T15:25:02;2.40;67.50